createdAt,value
2023-02-19T00:03:52.462Z,9.62
2023-02-19T00:08:55.045Z,9.64
2023-02-19T00:14:01.440Z,9.67
2023-02-19T00:19:05.595Z,9.66
2023-02-19T00:24:08.587Z,9.66
2023-02-19T00:29:16.440Z,9.63
2023-02-19T00:34:21.767Z,9.64
2023-02-19T00:39:26.820Z,9.63
2023-02-19T00:44:29.042Z,9.60
2023-02-19T00:49:30.983Z,9.57
2023-02-19T00:54:32.900Z,9.58
2023-02-19T00:59:36.954Z,9.53
2023-02-19T01:04:38.936Z,9.53
2023-02-19T01:09:42.968Z,9.51
2023-02-19T01:14:45.227Z,9.49
2023-02-19T01:19:47.861Z,9.39
2023-02-19T01:24:49.812Z,9.47
2023-02-19T01:29:51.801Z,9.47
2023-02-19T01:34:53.906Z,9.43
2023-02-19T01:39:55.820Z,9.39
2023-02-19T01:45:38.415Z,9.41
2023-02-19T01:50:50.718Z,9.34
2023-02-19T01:55:57.480Z,9.39
2023-02-19T02:01:03.878Z,9.38
2023-02-19T02:06:09.787Z,9.37
2023-02-19T02:11:12.651Z,9.34
2023-02-19T02:16:20.742Z,9.35
2023-02-19T02:21:53.646Z,9.34
2023-02-19T02:27:16.261Z,9.28
2023-02-19T02:32:33.846Z,9.22
2023-02-19T02:37:38.669Z,9.21
2023-02-19T02:42:41.468Z,9.14
2023-02-19T02:47:56.393Z,9.04
2023-02-19T02:53:28.357Z,8.98
2023-02-19T02:58:30.744Z,8.85
2023-02-19T03:03:36.093Z,8.73
2023-02-19T03:08:42.203Z,8.62
2023-02-19T03:14:03.182Z,8.58
2023-02-19T03:19:21.854Z,8.50
2023-02-19T03:24:56.244Z,8.41
2023-02-19T03:30:00.548Z,8.32
2023-02-19T03:35:07.475Z,8.32
2023-02-19T03:40:10.271Z,8.30
2023-02-19T03:45:12.320Z,8.27
2023-02-19T03:50:25.284Z,8.21
2023-02-19T03:55:37.874Z,8.19
2023-02-19T04:00:50.983Z,8.15
2023-02-19T04:05:56.785Z,8.13
2023-02-19T04:11:00.258Z,8.06
2023-02-19T04:16:10.937Z,7.99
2023-02-19T04:21:13.703Z,7.94
2023-02-19T04:26:16.515Z,7.92
2023-02-19T04:31:18.579Z,7.89
2023-02-19T04:36:20.643Z,7.85
2023-02-19T04:41:22.556Z,7.81
2023-02-19T04:46:24.710Z,7.72
2023-02-19T04:51:26.647Z,7.74
2023-02-19T04:56:28.626Z,7.66
2023-02-19T05:01:30.703Z,7.63
2023-02-19T05:06:32.784Z,7.60
2023-02-19T05:11:34.885Z,7.59
2023-02-19T05:16:36.988Z,7.59
2023-02-19T05:21:42.578Z,7.59
2023-02-19T05:26:45.576Z,7.52
2023-02-19T05:31:49.064Z,7.51
2023-02-19T05:36:51.175Z,7.43
2023-02-19T05:41:53.178Z,7.45
2023-02-19T05:46:55.175Z,7.36
2023-02-19T05:51:57.173Z,7.32
2023-02-19T05:56:59.141Z,7.25
2023-02-19T06:02:01.061Z,7.23
2023-02-19T06:07:05.291Z,7.24
2023-02-19T06:12:08.254Z,7.20
2023-02-19T06:17:10.230Z,7.13
2023-02-19T06:22:14.971Z,7.12
2023-02-19T06:27:17.140Z,7.09
2023-02-19T06:32:19.279Z,7.07
2023-02-19T06:37:21.347Z,6.99
2023-02-19T06:42:23.344Z,6.97
2023-02-19T06:47:25.573Z,6.95
2023-02-19T06:52:27.986Z,6.95
2023-02-19T06:57:30.093Z,6.95
2023-02-19T07:02:32.159Z,6.91
2023-02-19T07:07:34.253Z,6.87
2023-02-19T07:12:36.433Z,6.85
2023-02-19T07:17:38.421Z,6.83
2023-02-19T07:22:41.866Z,6.80
2023-02-19T07:27:43.835Z,6.77
2023-02-19T07:32:46.040Z,6.77
2023-02-19T07:37:48.147Z,6.82
2023-02-19T07:42:50.208Z,6.83
2023-02-19T07:47:52.235Z,6.89
2023-02-19T07:52:54.240Z,6.89
2023-02-19T07:57:58.366Z,7.03
2023-02-19T08:03:00.579Z,7.13
2023-02-19T08:08:02.704Z,7.20
2023-02-19T08:13:20.737Z,7.26
2023-02-19T08:18:25.139Z,7.33
2023-02-19T08:23:27.986Z,7.44
2023-02-19T08:28:30.616Z,7.49
2023-02-19T08:33:32.929Z,7.59
2023-02-19T08:38:36.600Z,7.71
2023-02-19T08:43:39.005Z,7.89
2023-02-19T08:48:41.420Z,8.11
2023-02-19T08:53:43.460Z,8.36
2023-02-19T08:58:45.896Z,8.60
2023-02-19T09:03:47.882Z,8.82
2023-02-19T09:08:49.812Z,9.15
2023-02-19T09:13:51.899Z,9.54
2023-02-19T09:18:57.448Z,9.80
2023-02-19T09:23:59.543Z,10.10
2023-02-19T09:29:01.569Z,10.57
2023-02-19T09:34:03.560Z,11.28
2023-02-19T09:39:07.930Z,11.93
2023-02-19T09:44:09.933Z,12.70
2023-02-19T09:49:21.324Z,13.38
2023-02-19T09:54:26.159Z,13.80
2023-02-19T09:59:35.378Z,14.00
2023-02-19T10:04:39.270Z,14.01
2023-02-19T10:09:42.597Z,14.42
2023-02-19T10:14:48.174Z,14.80
2023-02-19T10:19:51.573Z,15.10
2023-02-19T10:24:55.131Z,15.35
2023-02-19T10:29:58.211Z,15.17
2023-02-19T10:35:16.515Z,15.25
2023-02-19T10:40:36.637Z,15.52
2023-02-19T10:45:50.500Z,16.21
2023-02-19T10:50:58.252Z,16.68
2023-02-19T10:56:38.745Z,16.66
2023-02-19T11:01:59.249Z,16.58
2023-02-19T11:07:17.134Z,17.18
2023-02-19T11:12:26.249Z,17.27
2023-02-19T11:17:30.118Z,17.22
2023-02-19T11:22:38.498Z,17.19
2023-02-19T11:28:07.231Z,17.06
2023-02-19T11:33:27.652Z,17.11
2023-02-19T11:38:30.250Z,17.05
2023-02-19T11:43:48.948Z,17.00
2023-02-19T11:49:14.363Z,16.65
2023-02-19T11:54:38.099Z,16.62
2023-02-19T12:00:15.794Z,16.57
2023-02-19T12:05:29.782Z,16.41
2023-02-19T12:10:50.256Z,16.63
2023-02-19T12:16:12.567Z,16.64
2023-02-19T12:21:39.307Z,16.45
2023-02-19T12:26:59.759Z,16.49
2023-02-19T12:32:24.583Z,16.58
2023-02-19T12:37:38.477Z,16.61
2023-02-19T12:43:06.845Z,16.43
2023-02-19T12:48:20.865Z,16.53
2023-02-19T12:53:38.752Z,16.59
2023-02-19T12:58:51.260Z,16.68
2023-02-19T13:04:11.861Z,16.83
2023-02-19T13:09:18.711Z,16.92
2023-02-19T13:14:34.898Z,17.13
2023-02-19T13:19:38.308Z,17.05
2023-02-19T13:24:42.219Z,17.14
2023-02-19T13:29:45.894Z,17.19
2023-02-19T13:35:01.077Z,17.08
2023-02-19T13:40:25.532Z,17.10
2023-02-19T13:45:42.090Z,17.37
2023-02-19T13:50:44.196Z,17.48
2023-02-19T13:55:52.769Z,17.47
2023-02-19T14:00:55.993Z,17.63
2023-02-19T14:06:01.297Z,17.71
2023-02-19T14:11:03.328Z,17.57
2023-02-19T14:16:05.280Z,17.51
2023-02-19T14:21:16.309Z,17.60
2023-02-19T14:26:18.710Z,17.71
2023-02-19T14:31:31.866Z,17.71
2023-02-19T14:36:33.893Z,17.78
2023-02-19T14:41:38.839Z,17.74
2023-02-19T14:46:53.444Z,17.85
2023-02-19T14:51:59.629Z,17.94
2023-02-19T14:57:02.565Z,17.92
2023-02-19T15:02:21.262Z,17.86
2023-02-19T15:07:26.286Z,17.84
2023-02-19T15:12:35.375Z,18.02
2023-02-19T15:17:42.042Z,18.21
2023-02-19T15:22:53.986Z,17.99
2023-02-19T15:27:55.962Z,17.92
2023-02-19T15:32:59.758Z,17.83
2023-02-19T15:38:01.760Z,17.77
2023-02-19T15:43:03.877Z,17.71
2023-02-19T15:48:14.764Z,17.64
2023-02-19T15:53:23.363Z,17.69
2023-02-19T15:59:02.135Z,17.71
2023-02-19T16:04:04.875Z,17.59
2023-02-19T16:09:07.293Z,17.35
2023-02-19T16:14:31.644Z,17.36
2023-02-19T16:19:47.546Z,17.31
2023-02-19T16:24:51.623Z,17.31
2023-02-19T16:29:53.638Z,17.31
2023-02-19T16:34:55.615Z,17.25
2023-02-19T16:40:11.260Z,17.23
2023-02-19T16:45:13.400Z,17.14
2023-02-19T16:50:17.336Z,17.04
2023-02-19T16:55:19.141Z,16.94
2023-02-19T17:00:27.247Z,16.89
2023-02-19T17:05:31.479Z,16.81
2023-02-19T17:10:33.710Z,16.75
2023-02-19T17:15:35.737Z,16.66
2023-02-19T17:20:38.744Z,16.61
2023-02-19T17:25:40.874Z,16.55
2023-02-19T17:30:43.042Z,16.40
2023-02-19T17:35:45.612Z,16.26
2023-02-19T17:40:47.517Z,16.19
2023-02-19T17:45:49.442Z,16.03
2023-02-19T17:50:52.397Z,15.94
2023-02-19T17:55:54.585Z,15.82
2023-02-19T18:00:56.717Z,15.66
2023-02-19T18:05:58.824Z,15.62
2023-02-19T18:11:01.073Z,15.56
2023-02-19T18:16:03.055Z,15.46
2023-02-19T18:21:09.283Z,15.42
2023-02-19T18:26:11.640Z,15.30
2023-02-19T18:31:14.305Z,15.20
2023-02-19T18:36:16.465Z,15.10
2023-02-19T18:41:21.045Z,15.03
2023-02-19T18:46:23.797Z,14.96
2023-02-19T18:51:26.005Z,14.79
2023-02-19T18:56:29.697Z,14.59
2023-02-19T19:01:31.832Z,14.47
2023-02-19T19:06:35.885Z,14.39
2023-02-19T19:11:38.517Z,14.37
2023-02-19T19:16:41.032Z,14.28
2023-02-19T19:21:43.137Z,14.23
2023-02-19T19:26:46.775Z,14.15
2023-02-19T19:31:54.413Z,14.07
2023-02-19T19:36:56.464Z,13.97
2023-02-19T19:41:58.462Z,13.84
2023-02-19T19:47:00.361Z,13.82
2023-02-19T19:52:02.393Z,13.81
2023-02-19T19:57:04.572Z,13.77
2023-02-19T20:02:07.698Z,13.72
2023-02-19T20:07:10.127Z,13.67
2023-02-19T20:12:12.920Z,13.65
2023-02-19T20:17:15.292Z,13.54
2023-02-19T20:22:17.258Z,13.49
2023-02-19T20:27:20.700Z,13.42
2023-02-19T20:32:22.957Z,13.31
2023-02-19T20:37:24.940Z,13.26
2023-02-19T20:42:26.920Z,13.17
2023-02-19T20:47:28.833Z,13.14
2023-02-19T20:52:30.926Z,13.12
2023-02-19T20:57:32.943Z,13.12
2023-02-19T21:02:35.150Z,13.10
2023-02-19T21:07:37.309Z,13.01
2023-02-19T21:12:39.497Z,12.98
2023-02-19T21:17:44.951Z,12.97
2023-02-19T21:22:47.065Z,12.94
2023-02-19T21:27:49.277Z,12.92
2023-02-19T21:32:51.465Z,12.84
2023-02-19T21:37:53.448Z,12.72
2023-02-19T21:42:55.516Z,12.56
2023-02-19T21:47:58.286Z,12.51
2023-02-19T21:53:01.474Z,12.42
2023-02-19T21:58:03.739Z,12.46
2023-02-19T22:03:05.973Z,12.49
2023-02-19T22:08:07.939Z,12.44
2023-02-19T22:13:10.239Z,12.43
2023-02-19T22:18:14.580Z,12.43
2023-02-19T22:23:16.562Z,12.42
2023-02-19T22:28:21.478Z,12.42
2023-02-19T22:33:23.685Z,12.37
2023-02-19T22:38:25.664Z,12.23
2023-02-19T22:43:27.634Z,12.23
2023-02-19T22:48:31.467Z,12.20
2023-02-19T22:53:33.537Z,12.12
2023-02-19T22:58:36.146Z,12.12
2023-02-19T23:03:58.530Z,12.11
2023-02-19T23:09:08.998Z,12.13
2023-02-19T23:14:12.879Z,12.13
2023-02-19T23:19:15.672Z,12.14
2023-02-19T23:24:19.262Z,12.14
2023-02-19T23:29:25.159Z,12.14
2023-02-19T23:34:27.583Z,12.12
2023-02-19T23:39:29.841Z,12.04
2023-02-19T23:44:32.009Z,11.95
2023-02-19T23:49:34.120Z,11.78
2023-02-19T23:54:36.133Z,11.66
2023-02-19T23:59:38.331Z,11.50
